Pallaskenry, Ireland
Current Conditions -  °F | °C
As of 2:30 AM on Thursday 18 Dec 2014 (Local Time) from EINN Reporting Station
Light Rain Light Rain  
Wind Chill: 52°   Ceiling: 700
Heat Index: 52°   Visibility: 1.8mi
Dew Point: 52°   Wind: 24mph
Humidity: 100%   Direction: 220°SW
Pressure: 29.71"   Gusts: NA
Location:  52.65°N, 8.87°W
Report Text: EINN 180230Z 22021KT 3000 -RADZ SCT004 BKN007 11/11 Q1006 TEMPO BKN004
Loading
Personal Weather Stations






























Interactive Weather Map New forecast layout! Learn more

10-Day Weather Forecast

Advertisements
Track Severe Weather on mobile